Terminal Aerodrome Forecast
Issued by NWS Sterling, VA

Current Version | Previous Version | Graphics & Text | Print | Product List | Glossary On
Versions: 1 2 3 4 5 6 7 8 9 10 11 12 13 14 15 16 17 18 19 20 21 22 23
035
FTUS41 KLWX 082332
TAFDCA
TAF
KDCA 082332Z 0900/0924 12006KT P6SM -RA OVC080
     FM090100 11006KT 5SM -RASN OVC060
     FM090300 11006KT 3SM -RASN OVC030
     FM090700 05006KT 1SM -SN OVC008
     FM091200 04006KT 1/2SM SN OVC008
     FM091900 34005KT 2SM -SN OVC008=

USA.gov is the U.S. government's official web portal to all federal, state and local government web resources and services.